Time;durP1;ratioP1;P1;durP2;ratioP2;P2;SDS_P1;SDS_P2;PMS_P1;PMS_P2;Temp;Humidity;BMP_temperature;BMP_pressure;BME280_temperature;BME280_humidity;BME280_pressure;Samples;Min_cycle;Max_cycle;Signal;HPM_P1;HPM_P2
2022/10/25 00:45:56;;;;;;;0.35;0.35;;;;;;;;;;6173843;22;20012;-95
2022/10/25 00:48:47;;;;;;;0.20;0.20;;;;;;;;;;6172866;23;20051;-96
2022/10/25 02:59:34;;;;;;;0.10;0.10;;;;;;;;;;6218766;23;20095;-95
2022/10/25 03:02:04;;;;;;;0.10;0.10;;;;;;;;;;6191117;23;20048;-96
2022/10/25 03:10:58;;;;;;;0.10;0.10;;;;;;;;;;6177394;23;20458;-96
2022/10/25 03:13:32;;;;;;;0.10;0.10;;;;;;;;;;6165364;23;20075;-96
2022/10/25 03:16:13;;;;;;;0.10;0.10;;;;;;;;;;6190605;23;20017;-96
2022/10/25 03:18:50;;;;;;;0.20;0.20;;;;;;;;;;6190364;23;20020;-96
2022/10/25 03:21:21;;;;;;;0.10;0.10;;;;;;;;;;6166849;23;20016;-95
2022/10/25 03:28:18;;;;;;;0.38;0.38;;;;;;;;;;5994195;23;20453;-95
2022/10/25 03:34:49;;;;;;;0.30;0.30;;;;;;;;;;5985492;23;20024;-95
2022/10/25 03:37:33;;;;;;;;;;;;;;;;;;;;;
2022/10/25 03:40:20;;;;;;;;;;;;;;;;;;;;;
2022/10/25 03:46:13;;;;;;;0.20;0.20;;;;;;;;;;6078461;23;20020;-96
2022/10/25 03:57:20;;;;;;;0.10;0.10;;;;;;;;;;6272863;22;20044;-94
2022/10/25 04:04:22;;;;;;;;;;;;;;;;;;;;;
2022/10/25 04:16:34;;;;;;;;;;;;;;;;;;;;;
2022/10/25 05:02:19;;;;;;;;;;;;;;;;;;;;;
2022/10/25 05:05:44;;;;;;;;;;;;;;;;;;;;;
2022/10/25 06:31:36;;;;;;;0.10;0.10;;;;;;;;;;6276681;22;20024;-96
2022/10/25 06:37:24;;;;;;;;;;;;;;;;;;;;;
2022/10/25 06:40:13;;;;;;;0.20;0.20;;;;;;;;;;6255026;22;20467;-95
2022/10/25 06:42:43;;;;;;;0.10;0.10;;;;;;;;;;6201987;22;20042;-96
2022/10/25 06:47:45;;;;;;;0.10;0.10;;;;;;;;;;6289647;22;20030;-92
2022/10/25 06:53:20;;;;;;;0.10;0.10;;;;;;;;;;6196265;23;20025;-95
2022/10/25 06:55:49;;;;;;;0.10;0.10;;;;;;;;;;6264438;22;20030;-95
2022/10/25 06:58:27;;;;;;;0.10;0.10;;;;;;;;;;6227477;22;20014;-95
2022/10/25 07:03:53;;;;;;;0.10;0.10;;;;;;;;;;6304449;22;20027;-96
2022/10/25 07:06:22;;;;;;;0.20;0.20;;;;;;;;;;6231465;22;20041;-93
2022/10/25 07:08:54;;;;;;;0.10;0.10;;;;;;;;;;6255710;22;20034;-95
2022/10/25 07:11:20;;;;;;;0.10;0.10;;;;;;;;;;6230612;22;20331;-94
2022/10/25 07:13:46;;;;;;;0.20;0.20;;;;;;;;;;6231268;22;20014;-93
2022/10/25 07:16:13;;;;;;;0.10;0.10;;;;;;;;;;6230482;22;20012;-93
2022/10/25 07:18:39;;;;;;;0.38;0.38;;;;;;;;;;6229105;22;20015;-95
2022/10/25 07:21:16;;;;;;;0.15;0.15;;;;;;;;;;6254458;22;20011;-91
2022/10/25 07:23:51;;;;;;;0.10;0.10;;;;;;;;;;6231093;22;20048;-95
2022/10/25 07:29:07;;;;;;;0.10;0.10;;;;;;;;;;6278859;22;20020;-94
2022/10/25 07:31:37;;;;;;;0.20;0.20;;;;;;;;;;6207247;22;20095;-95
2022/10/25 07:34:06;;;;;;;0.10;0.10;;;;;;;;;;6201651;22;20011;-94
2022/10/25 07:36:35;;;;;;;0.20;0.20;;;;;;;;;;6199326;23;20054;-94
2022/10/25 07:39:02;;;;;;;0.10;0.10;;;;;;;;;;6196382;23;20441;-95
2022/10/25 07:49:38;;;;;;;;;;;;;;;;;;;;;
2022/10/25 07:52:17;;;;;;;;;;;;;;;;;;;;;
2022/10/25 07:54:47;;;;;;;0.10;0.10;;;;;;;;;;6229459;22;20379;-95
2022/10/25 07:57:13;;;;;;;0.10;0.10;;;;;;;;;;6201411;22;20027;-94
2022/10/25 07:59:41;;;;;;;0.10;0.10;;;;;;;;;;6204843;22;20015;-95
2022/10/25 08:02:08;;;;;;;0.10;0.10;;;;;;;;;;6203217;22;20024;-93
2022/10/25 08:04:37;;;;;;;0.10;0.10;;;;;;;;;;6231282;22;20019;-94
2022/10/25 08:07:03;;;;;;;0.10;0.10;;;;;;;;;;6233547;22;20061;-94
2022/10/25 08:09:54;;;;;;;1.55;0.52;;;;;;;;;;6220598;22;20712;-96
2022/10/25 08:12:20;;;;;;;0.55;0.55;;;;;;;;;;6235747;22;20343;-96
2022/10/25 08:14:49;;;;;;;0.10;0.10;;;;;;;;;;6232421;22;20133;-94
2022/10/25 08:17:17;;;;;;;0.25;0.25;;;;;;;;;;6238214;22;20011;-95
2022/10/25 08:19:46;;;;;;;0.10;0.10;;;;;;;;;;6201523;22;20012;-96
2022/10/25 08:22:12;;;;;;;0.10;0.10;;;;;;;;;;6205023;22;20291;-96
2022/10/25 08:27:48;;;;;;;0.10;0.10;;;;;;;;;;6228058;22;20022;-93
2022/10/25 08:30:17;;;;;;;0.10;0.10;;;;;;;;;;6228130;22;20357;-93
2022/10/25 08:32:43;;;;;;;0.10;0.10;;;;;;;;;;6200792;22;20577;-92
2022/10/25 08:35:09;;;;;;;0.10;0.10;;;;;;;;;;6200736;22;20012;-91
2022/10/25 08:37:35;;;;;;;0.10;0.10;;;;;;;;;;6200244;22;20085;-93
2022/10/25 08:40:01;;;;;;;0.10;0.10;;;;;;;;;;6201767;22;20505;-92
2022/10/25 08:42:32;;;;;;;0.20;0.20;;;;;;;;;;6200124;22;20433;-93
2022/10/25 08:44:58;;;;;;;0.10;0.10;;;;;;;;;;6200789;22;20011;-94
2022/10/25 08:47:26;;;;;;;0.10;0.10;;;;;;;;;;6225530;22;20007;-92
2022/10/25 08:50:00;;;;;;;0.20;0.20;;;;;;;;;;6225125;22;20008;-91
2022/10/25 08:52:27;;;;;;;1.65;0.40;;;;;;;;;;6200089;22;20434;-91
2022/10/25 08:54:53;;;;;;;0.20;0.20;;;;;;;;;;6200403;22;20027;-93
2022/10/25 08:57:23;;;;;;;0.30;0.30;;;;;;;;;;6225617;22;20336;-92
2022/10/25 08:59:59;;;;;;;0.10;0.10;;;;;;;;;;6200295;22;20023;-92
2022/10/25 09:02:28;;;;;;;1.17;0.90;;;;;;;;;;6200500;22;20020;-93
2022/10/25 09:04:55;;;;;;;0.10;0.10;;;;;;;;;;6225462;22;20011;-94
2022/10/25 09:07:37;;;;;;;0.17;0.17;;;;;;;;;;6204889;22;20031;-93
2022/10/25 09:10:13;;;;;;;0.10;0.10;;;;;;;;;;6199680;22;20452;-95
2022/10/25 09:12:43;;;;;;;0.15;0.15;;;;;;;;;;6225425;22;20027;-93
2022/10/25 09:15:12;;;;;;;0.10;0.10;;;;;;;;;;6201633;22;20091;-95
2022/10/25 09:17:52;;;;;;;0.10;0.10;;;;;;;;;;6228168;22;20073;-90
2022/10/25 09:20:19;;;;;;;0.20;0.20;;;;;;;;;;6226839;22;20015;-94
2022/10/25 09:22:46;;;;;;;0.10;0.10;;;;;;;;;;6209023;22;20015;-93
2022/10/25 09:25:15;;;;;;;0.20;0.20;;;;;;;;;;6215734;22;20038;-91
2022/10/25 09:27:54;;;;;;;0.10;0.10;;;;;;;;;;6234765;22;20046;-91
2022/10/25 09:30:22;;;;;;;0.10;0.10;;;;;;;;;;6200996;22;20022;-92
2022/10/25 09:32:48;;;;;;;0.10;0.10;;;;;;;;;;6213061;22;20039;-92
2022/10/25 09:35:22;;;;;;;0.10;0.10;;;;;;;;;;6216246;22;20011;-92
2022/10/25 09:37:49;;;;;;;0.10;0.10;;;;;;;;;;6228640;22;20115;-92
2022/10/25 09:40:19;;;;;;;0.10;0.10;;;;;;;;;;6201197;22;20011;-93
2022/10/25 09:42:55;;;;;;;0.10;0.10;;;;;;;;;;6200198;22;20012;-94
2022/10/25 09:45:26;;;;;;;0.10;0.10;;;;;;;;;;6203944;22;20050;-93
2022/10/25 09:48:23;;;;;;;0.10;0.10;;;;;;;;;;6204458;22;20012;-94
2022/10/25 09:51:12;;;;;;;0.10;0.10;;;;;;;;;;6227146;22;20019;-93
2022/10/25 09:53:39;;;;;;;0.20;0.20;;;;;;;;;;6199821;22;20559;-92
2022/10/25 09:56:05;;;;;;;0.10;0.10;;;;;;;;;;6224468;22;20015;-92
2022/10/25 09:58:37;;;;;;;0.10;0.10;;;;;;;;;;6199678;22;20011;-93
2022/10/25 10:01:19;;;;;;;0.10;0.10;;;;;;;;;;6225045;22;20027;-91
2022/10/25 10:03:48;;;;;;;0.10;0.10;;;;;;;;;;6204830;22;20062;-92
2022/10/25 10:06:25;;;;;;;0.10;0.10;;;;;;;;;;6202849;22;20012;-94
2022/10/25 10:08:51;;;;;;;0.10;0.10;;;;;;;;;;6199884;22;20012;-95
2022/10/25 10:11:17;;;;;;;0.10;0.10;;;;;;;;;;6199622;22;20016;-95
2022/10/25 10:13:46;;;;;;;0.20;0.20;;;;;;;;;;6199899;22;20322;-90
2022/10/25 10:16:20;;;;;;;0.10;0.10;;;;;;;;;;6224337;22;20027;-91
2022/10/25 10:18:47;;;;;;;0.10;0.10;;;;;;;;;;6199543;22;20368;-91
2022/10/25 10:21:14;;;;;;;0.10;0.10;;;;;;;;;;6224502;22;20023;-91
2022/10/25 10:23:44;;;;;;;0.10;0.10;;;;;;;;;;6198988;22;20095;-91
2022/10/25 10:26:30;;;;;;;0.10;0.10;;;;;;;;;;6224083;22;20019;-92
2022/10/25 10:29:15;;;;;;;0.20;0.20;;;;;;;;;;6255109;22;20043;-96
2022/10/25 10:32:07;;;;;;;0.15;0.15;;;;;;;;;;6229942;22;20409;-90
2022/10/25 10:34:43;;;;;;;0.10;0.10;;;;;;;;;;6250136;22;20023;-90
2022/10/25 10:37:14;;;;;;;0.10;0.10;;;;;;;;;;6231499;22;20046;-93
2022/10/25 10:39:57;;;;;;;0.10;0.10;;;;;;;;;;6226636;22;20011;-93
2022/10/25 10:42:23;;;;;;;;;;;;;;;;;;6228525;22;20020;-93
2022/10/25 10:45:01;;;;;;;0.10;0.10;;;;;;;;;;6224107;22;20324;-93
2022/10/25 10:47:31;;;;;;;0.10;0.10;;;;;;;;;;6224683;22;20011;-93
2022/10/25 10:49:57;;;;;;;0.10;0.10;;;;;;;;;;6200171;22;20022;-94
2022/10/25 10:52:36;;;;;;;0.10;0.10;;;;;;;;;;6202812;22;20019;-94
2022/10/25 10:55:02;;;;;;;0.10;0.10;;;;;;;;;;6200905;22;20011;-93
2022/10/25 10:57:32;;;;;;;0.13;0.13;;;;;;;;;;6200902;22;20064;-92
2022/10/25 10:59:58;;;;;;;0.10;0.10;;;;;;;;;;6199557;22;20035;-93
2022/10/25 11:02:33;;;;;;;0.10;0.10;;;;;;;;;;6199513;22;20026;-92
2022/10/25 11:04:59;;;;;;;0.10;0.10;;;;;;;;;;6223903;22;20004;-92
2022/10/25 11:07:26;;;;;;;0.10;0.10;;;;;;;;;;6198872;22;20040;-92
2022/10/25 11:09:54;;;;;;;0.10;0.10;;;;;;;;;;6198534;22;20039;-94
2022/10/25 11:12:21;;;;;;;0.17;0.17;;;;;;;;;;6224751;22;20449;-92
2022/10/25 11:14:47;;;;;;;0.20;0.20;;;;;;;;;;6198711;22;20022;-92
2022/10/25 11:17:17;;;;;;;0.20;0.20;;;;;;;;;;6198752;22;20012;-94
2022/10/25 11:19:52;;;;;;;0.13;0.13;;;;;;;;;;6198678;22;20047;-90
2022/10/25 11:22:21;;;;;;;0.10;0.10;;;;;;;;;;6197286;22;20015;-91
2022/10/25 11:24:53;;;;;;;0.10;0.10;;;;;;;;;;6222938;22;20011;-90
2022/10/25 11:27:26;;;;;;;0.10;0.10;;;;;;;;;;6197989;22;20449;-90
2022/10/25 11:29:58;;;;;;;0.10;0.10;;;;;;;;;;6198330;22;20445;-89
2022/10/25 11:32:27;;;;;;;0.10;0.10;;;;;;;;;;6223311;22;20015;-92
2022/10/25 11:34:56;;;;;;;0.10;0.10;;;;;;;;;;6223186;22;20011;-89
2022/10/25 11:37:24;;;;;;;0.10;0.10;;;;;;;;;;6223710;22;20016;-90
2022/10/25 11:39:53;;;;;;;0.20;0.20;;;;;;;;;;6222908;22;20337;-91
2022/10/25 11:42:28;;;;;;;0.20;0.20;;;;;;;;;;6198326;22;20022;-91
2022/10/25 11:44:57;;;;;;;0.20;0.20;;;;;;;;;;6223554;22;20437;-91
2022/10/25 11:47:33;;;;;;;0.10;0.10;;;;;;;;;;6248597;22;20016;-91
2022/10/25 11:50:11;;;;;;;0.10;0.10;;;;;;;;;;6222984;22;20047;-91
2022/10/25 11:52:41;;;;;;;0.10;0.10;;;;;;;;;;6198032;22;20102;-89
2022/10/25 11:55:26;;;;;;;0.10;0.10;;;;;;;;;;6198263;22;20043;-91
2022/10/25 11:57:52;;;;;;;0.10;0.10;;;;;;;;;;6222899;22;20341;-88
2022/10/25 12:00:19;;;;;;;0.10;0.10;;;;;;;;;;6248190;22;20026;-90
2022/10/25 12:03:00;;;;;;;0.10;0.10;;;;;;;;;;6197760;22;20053;-90
2022/10/25 12:05:32;;;;;;;0.10;0.10;;;;;;;;;;6224318;22;20019;-92
2022/10/25 12:08:17;;;;;;;0.15;0.15;;;;;;;;;;6224172;22;20428;-93
2022/10/25 12:10:43;;;;;;;0.20;0.20;;;;;;;;;;6223690;22;20019;-94
2022/10/25 12:13:20;;;;;;;0.10;0.10;;;;;;;;;;6250273;22;20015;-93
2022/10/25 12:15:47;;;;;;;0.20;0.20;;;;;;;;;;6255942;22;20011;-93
2022/10/25 12:18:18;;;;;;;0.10;0.10;;;;;;;;;;6232405;22;20055;-93
2022/10/25 12:20:45;;;;;;;0.10;0.10;;;;;;;;;;6232622;22;20051;-94
2022/10/25 12:23:12;;;;;;;0.10;0.10;;;;;;;;;;6231936;22;20070;-92
2022/10/25 12:25:46;;;;;;;0.38;0.38;;;;;;;;;;6233265;22;20019;-94
2022/10/25 12:28:26;;;;;;;0.20;0.20;;;;;;;;;;6232838;22;20019;-92
2022/10/25 12:30:53;;;;;;;0.10;0.10;;;;;;;;;;6233564;22;20018;-92
2022/10/25 12:33:41;;;;;;;0.20;0.20;;;;;;;;;;6236499;22;20384;-92
2022/10/25 12:36:22;;;;;;;0.13;0.13;;;;;;;;;;6261856;22;20020;-91
2022/10/25 12:38:48;;;;;;;0.20;0.20;;;;;;;;;;6235385;22;20015;-92
2022/10/25 12:41:19;;;;;;;0.10;0.10;;;;;;;;;;6239049;22;20016;-92
2022/10/25 12:43:50;;;;;;;0.10;0.10;;;;;;;;;;6237275;22;20031;-93
2022/10/25 12:46:16;;;;;;;0.10;0.10;;;;;;;;;;6289303;22;20019;-92
2022/10/25 12:49:12;;;;;;;0.10;0.10;;;;;;;;;;6288933;22;20008;-93
2022/10/25 12:51:57;;;;;;;0.10;0.10;;;;;;;;;;6174622;22;20366;-92
2022/10/25 12:54:43;;;;;;;0.10;0.10;;;;;;;;;;6279043;22;20099;-93
2022/10/25 12:57:24;;;;;;;0.20;0.20;;;;;;;;;;6280659;22;20012;-93
2022/10/25 13:00:09;;;;;;;1.98;0.35;;;;;;;;;;6269677;22;19999;-92
2022/10/25 13:02:38;;;;;;;0.20;0.20;;;;;;;;;;6289372;22;20062;-93
2022/10/25 13:05:10;;;;;;;0.10;0.10;;;;;;;;;;6286952;22;20012;-92
2022/10/25 13:07:36;;;;;;;0.10;0.10;;;;;;;;;;6284453;22;20008;-93
2022/10/25 13:10:06;;;;;;;0.10;0.10;;;;;;;;;;6259737;22;20011;-92
2022/10/25 13:12:32;;;;;;;0.10;0.10;;;;;;;;;;6260130;22;20023;-92
2022/10/25 13:14:58;;;;;;;0.10;0.10;;;;;;;;;;6263396;22;20043;-92
2022/10/25 13:17:24;;;;;;;0.20;0.20;;;;;;;;;;6266096;22;20023;-91
2022/10/25 13:19:54;;;;;;;0.10;0.10;;;;;;;;;;6291633;22;20341;-92
2022/10/25 13:22:36;;;;;;;0.10;0.10;;;;;;;;;;6266052;22;20030;-92
2022/10/25 13:25:08;;;;;;;0.20;0.20;;;;;;;;;;6268104;22;20000;-93
2022/10/25 13:27:35;;;;;;;0.10;0.10;;;;;;;;;;6289990;22;20007;-92
2022/10/25 13:30:07;;;;;;;0.10;0.10;;;;;;;;;;6269789;22;20069;-92
2022/10/25 13:32:34;;;;;;;0.20;0.20;;;;;;;;;;6297152;22;20031;-91
2022/10/25 13:35:01;;;;;;;0.10;0.10;;;;;;;;;;6271256;22;20015;-92
2022/10/25 13:37:30;;;;;;;0.10;0.10;;;;;;;;;;6261019;22;20102;-92
2022/10/25 13:40:00;;;;;;;0.10;0.10;;;;;;;;;;6275647;22;20012;-92
2022/10/25 13:42:29;;;;;;;0.10;0.10;;;;;;;;;;6250712;22;20315;-92
2022/10/25 13:45:01;;;;;;;0.10;0.10;;;;;;;;;;6275640;22;20065;-92
2022/10/25 13:47:30;;;;;;;0.10;0.10;;;;;;;;;;6276055;22;20015;-92
2022/10/25 13:49:56;;;;;;;0.10;0.10;;;;;;;;;;6276076;22;20019;-92
2022/10/25 13:52:24;;;;;;;2.03;0.32;;;;;;;;;;6249535;22;20012;-92
2022/10/25 13:54:50;;;;;;;0.10;0.10;;;;;;;;;;6250281;22;20061;-92
2022/10/25 13:57:35;;;;;;;0.10;0.10;;;;;;;;;;6250253;22;20018;-92
2022/10/25 14:00:01;;;;;;;0.10;0.10;;;;;;;;;;6275520;22;20480;-90
2022/10/25 14:02:27;;;;;;;0.10;0.10;;;;;;;;;;6249678;22;20019;-89
2022/10/25 14:04:53;;;;;;;0.10;0.10;;;;;;;;;;6247357;22;20106;-89
2022/10/25 14:07:38;;;;;;;0.10;0.10;;;;;;;;;;6248795;22;20062;-89
2022/10/25 14:10:04;;;;;;;0.20;0.20;;;;;;;;;;6274409;22;20011;-89
2022/10/25 14:12:30;;;;;;;0.10;0.10;;;;;;;;;;6249078;22;20043;-88
2022/10/25 14:14:59;;;;;;;0.20;0.20;;;;;;;;;;6249280;22;20023;-88
2022/10/25 14:17:41;;;;;;;0.10;0.10;;;;;;;;;;6248941;22;20429;-89
2022/10/25 14:20:07;;;;;;;0.10;0.10;;;;;;;;;;6249631;22;20015;-90
2022/10/25 14:22:35;;;;;;;0.10;0.10;;;;;;;;;;6248850;22;20269;-90
2022/10/25 14:25:13;;;;;;;0.15;0.15;;;;;;;;;;6249283;22;20178;-89
2022/10/25 14:27:39;;;;;;;0.10;0.10;;;;;;;;;;6248944;22;20039;-89
2022/10/25 14:30:23;;;;;;;0.10;0.10;;;;;;;;;;6249016;22;20019;-88
2022/10/25 14:32:56;;;;;;;0.10;0.10;;;;;;;;;;6273746;22;20015;-88
2022/10/25 14:35:23;;;;;;;0.17;0.17;;;;;;;;;;6248650;22;20409;-88
2022/10/25 14:37:49;;;;;;;0.30;0.20;;;;;;;;;;6249083;22;20022;-90
2022/10/25 14:40:25;;;;;;;0.30;0.30;;;;;;;;;;6248613;22;20023;-90
2022/10/25 14:42:53;;;;;;;0.15;0.15;;;;;;;;;;6248351;22;20023;-89
2022/10/25 14:45:20;;;;;;;0.10;0.10;;;;;;;;;;6248599;22;20009;-89
2022/10/25 14:47:46;;;;;;;0.65;0.30;;;;;;;;;;6222859;22;20007;-90
2022/10/25 14:50:15;;;;;;;0.10;0.10;;;;;;;;;;6272324;22;20043;-90
2022/10/25 14:52:45;;;;;;;0.10;0.10;;;;;;;;;;6251456;22;20090;-89
2022/10/25 14:55:16;;;;;;;0.10;0.10;;;;;;;;;;6248470;22;20041;-89
2022/10/25 14:57:42;;;;;;;0.10;0.10;;;;;;;;;;6273729;22;20018;-89
2022/10/25 15:00:16;;;;;;;0.10;0.10;;;;;;;;;;6248479;22;20015;-90
2022/10/25 15:02:42;;;;;;;0.10;0.10;;;;;;;;;;6248475;22;20437;-90
2022/10/25 15:05:13;;;;;;;0.10;0.10;;;;;;;;;;6248295;22;20069;-89
2022/10/25 15:07:40;;;;;;;0.10;0.10;;;;;;;;;;6248386;22;20012;-89
2022/10/25 15:10:06;;;;;;;0.10;0.10;;;;;;;;;;6248366;22;20449;-90
2022/10/25 15:12:32;;;;;;;0.10;0.10;;;;;;;;;;6273936;22;20016;-89
2022/10/25 15:14:59;;;;;;;0.55;0.30;;;;;;;;;;6248441;22;20023;-90
2022/10/25 15:17:27;;;;;;;0.10;0.10;;;;;;;;;;6248379;22;20402;-89
2022/10/25 15:20:16;;;;;;;0.10;0.10;;;;;;;;;;6248198;22;20038;-89
2022/10/25 15:22:43;;;;;;;0.10;0.10;;;;;;;;;;6237833;22;20018;-88
2022/10/25 15:25:21;;;;;;;0.10;0.10;;;;;;;;;;6248300;22;20008;-90
2022/10/25 15:27:47;;;;;;;0.10;0.10;;;;;;;;;;6273552;22;20007;-89
2022/10/25 15:30:35;;;;;;;0.10;0.10;;;;;;;;;;6247980;22;20011;-88
2022/10/25 15:33:02;;;;;;;0.10;0.10;;;;;;;;;;6248184;22;20026;-88
2022/10/25 15:35:28;;;;;;;0.10;0.10;;;;;;;;;;6248032;22;20074;-90
2022/10/25 15:37:55;;;;;;;0.10;0.10;;;;;;;;;;6248202;22;20015;-89
2022/10/25 15:40:21;;;;;;;0.10;0.10;;;;;;;;;;6248797;22;20444;-89
2022/10/25 15:42:47;;;;;;;0.10;0.10;;;;;;;;;;6247984;22;20022;-89
2022/10/25 15:45:13;;;;;;;0.10;0.10;;;;;;;;;;6248362;22;20047;-89
2022/10/25 15:47:41;;;;;;;0.10;0.10;;;;;;;;;;6248324;22;20012;-89
2022/10/25 15:50:14;;;;;;;0.10;0.10;;;;;;;;;;6248385;22;20019;-88
2022/10/25 15:52:40;;;;;;;0.10;0.10;;;;;;;;;;6248254;22;20016;-87
2022/10/25 15:55:45;;;;;;;0.10;0.10;;;;;;;;;;6248178;22;20090;-87
2022/10/25 15:58:11;;;;;;;0.10;0.10;;;;;;;;;;6273152;22;20094;-87
2022/10/25 16:00:37;;;;;;;0.10;0.10;;;;;;;;;;6248070;22;20047;-88
2022/10/25 16:03:03;;;;;;;0.10;0.10;;;;;;;;;;6248652;22;20060;-87
2022/10/25 16:05:31;;;;;;;0.10;0.10;;;;;;;;;;6247896;22;20453;-87
2022/10/25 16:07:57;;;;;;;0.30;0.20;;;;;;;;;;6247678;22;20008;-86
2022/10/25 16:10:23;;;;;;;0.10;0.10;;;;;;;;;;6247779;22;20019;-86
2022/10/25 16:12:52;;;;;;;0.10;0.10;;;;;;;;;;6247667;22;20035;-87
2022/10/25 16:15:18;;;;;;;0.10;0.10;;;;;;;;;;6248112;22;20022;-87
2022/10/25 16:17:47;;;;;;;0.10;0.10;;;;;;;;;;6249589;22;20518;-85
2022/10/25 16:20:17;;;;;;;0.10;0.10;;;;;;;;;;6250327;22;20461;-85
2022/10/25 16:22:43;;;;;;;0.10;0.10;;;;;;;;;;6274870;22;20023;-87
2022/10/25 16:25:09;;;;;;;0.10;0.10;;;;;;;;;;6249995;22;20008;-86
2022/10/25 16:27:35;;;;;;;0.10;0.10;;;;;;;;;;6249628;22;20058;-84
2022/10/25 16:30:01;;;;;;;0.10;0.10;;;;;;;;;;6249785;22;20233;-86
2022/10/25 16:32:27;;;;;;;0.10;0.10;;;;;;;;;;6249500;22;20051;-87
2022/10/25 16:34:53;;;;;;;0.10;0.10;;;;;;;;;;6249722;22;20069;-87
2022/10/25 16:37:19;;;;;;;0.10;0.10;;;;;;;;;;6249383;22;20016;-88
2022/10/25 16:39:45;;;;;;;0.10;0.10;;;;;;;;;;6249672;22;20019;-88
2022/10/25 16:42:27;;;;;;;0.10;0.10;;;;;;;;;;6249630;22;20016;-88
2022/10/25 16:44:53;;;;;;;0.10;0.10;;;;;;;;;;6249722;22;20008;-87
2022/10/25 16:47:20;;;;;;;0.10;0.10;;;;;;;;;;6249042;22;20014;-88
2022/10/25 16:49:47;;;;;;;0.10;0.10;;;;;;;;;;6248980;22;20008;-87
2022/10/25 16:52:13;;;;;;;0.10;0.10;;;;;;;;;;6249376;22;20022;-87
2022/10/25 16:54:39;;;;;;;0.10;0.10;;;;;;;;;;6249528;22;20094;-88
2022/10/25 16:57:06;;;;;;;0.10;0.10;;;;;;;;;;6249521;22;20096;-87
2022/10/25 16:59:32;;;;;;;0.10;0.10;;;;;;;;;;6249566;22;20422;-89
2022/10/25 17:01:58;;;;;;;0.10;0.10;;;;;;;;;;6249054;22;20020;-87
2022/10/25 17:04:24;;;;;;;0.10;0.10;;;;;;;;;;6249354;22;20307;-88
2022/10/25 17:06:50;;;;;;;0.10;0.10;;;;;;;;;;6274694;22;20069;-88
2022/10/25 17:09:16;;;;;;;0.17;0.17;;;;;;;;;;6249349;22;20008;-88
2022/10/25 17:11:42;;;;;;;0.10;0.10;;;;;;;;;;6249613;22;20008;-88
2022/10/25 17:14:09;;;;;;;0.10;0.10;;;;;;;;;;6249409;22;20341;-87
2022/10/25 17:16:35;;;;;;;0.10;0.10;;;;;;;;;;6247233;22;20022;-87
2022/10/25 17:19:04;;;;;;;0.10;0.10;;;;;;;;;;6246807;22;20088;-86
2022/10/25 17:21:32;;;;;;;0.10;0.10;;;;;;;;;;6249658;22;20011;-89
2022/10/25 17:23:58;;;;;;;0.10;0.10;;;;;;;;;;6274465;22;20358;-86
2022/10/25 17:26:24;;;;;;;0.10;0.10;;;;;;;;;;6248919;22;20103;-86
2022/10/25 17:28:50;;;;;;;0.10;0.10;;;;;;;;;;6248993;22;20365;-87
2022/10/25 17:31:16;;;;;;;0.10;0.10;;;;;;;;;;6275157;22;20007;-87
2022/10/25 17:33:42;;;;;;;0.20;0.20;;;;;;;;;;6274747;22;20023;-87
2022/10/25 17:36:08;;;;;;;0.10;0.10;;;;;;;;;;6248873;22;20015;-88
2022/10/25 17:38:34;;;;;;;0.10;0.10;;;;;;;;;;6249501;22;20033;-88
2022/10/25 17:41:00;;;;;;;0.10;0.10;;;;;;;;;;6249392;22;20048;-89
2022/10/25 17:43:26;;;;;;;0.20;0.20;;;;;;;;;;6249035;22;20019;-88
2022/10/25 17:45:52;;;;;;;0.10;0.10;;;;;;;;;;6248881;22;20019;-88
2022/10/25 17:48:18;;;;;;;0.10;0.10;;;;;;;;;;6248802;22;20012;-88
2022/10/25 17:50:44;;;;;;;0.10;0.10;;;;;;;;;;6249127;22;20341;-88
2022/10/25 17:53:10;;;;;;;0.15;0.15;;;;;;;;;;6249175;22;20081;-88
2022/10/25 17:55:38;;;;;;;0.10;0.10;;;;;;;;;;6248996;22;20015;-88
2022/10/25 17:58:04;;;;;;;0.20;0.20;;;;;;;;;;6249310;22;20086;-88
2022/10/25 18:00:30;;;;;;;0.10;0.10;;;;;;;;;;6249073;22;20022;-87
2022/10/25 18:02:57;;;;;;;0.10;0.10;;;;;;;;;;6249122;22;20075;-88
2022/10/25 18:05:24;;;;;;;0.20;0.20;;;;;;;;;;6249264;22;20109;-87
2022/10/25 18:07:50;;;;;;;0.40;0.40;;;;;;;;;;6274189;22;20189;-87
2022/10/25 18:10:16;;;;;;;0.10;0.10;;;;;;;;;;6249274;22;20130;-87
2022/10/25 18:12:42;;;;;;;0.10;0.10;;;;;;;;;;6249052;22;20019;-87
2022/10/25 18:15:08;;;;;;;0.13;0.13;;;;;;;;;;6274131;22;20094;-87
2022/10/25 18:17:34;;;;;;;0.20;0.20;;;;;;;;;;6249276;22;20367;-87
2022/10/25 18:20:00;;;;;;;0.10;0.10;;;;;;;;;;6249212;22;20057;-88
2022/10/25 18:22:26;;;;;;;0.13;0.13;;;;;;;;;;6248649;22;20098;-88
2022/10/25 18:24:52;;;;;;;0.10;0.10;;;;;;;;;;6223620;22;20376;-87
2022/10/25 18:27:18;;;;;;;0.10;0.10;;;;;;;;;;6248686;22;20108;-90
2022/10/25 18:29:44;;;;;;;0.38;0.38;;;;;;;;;;6249085;22;20086;-87
2022/10/25 18:32:10;;;;;;;0.10;0.10;;;;;;;;;;6248926;22;20054;-91
2022/10/25 18:34:36;;;;;;;0.10;0.10;;;;;;;;;;6249307;22;20034;-87
2022/10/25 18:37:02;;;;;;;0.10;0.10;;;;;;;;;;6248435;22;20086;-88
2022/10/25 18:39:28;;;;;;;0.10;0.10;;;;;;;;;;6248791;22;20019;-89
2022/10/25 18:41:54;;;;;;;0.10;0.10;;;;;;;;;;6248503;22;20090;-88
2022/10/25 18:44:20;;;;;;;0.10;0.10;;;;;;;;;;6248748;22;20012;-88
2022/10/25 18:46:46;;;;;;;0.10;0.10;;;;;;;;;;6273838;22;20014;-88
2022/10/25 18:49:15;;;;;;;0.15;0.15;;;;;;;;;;6248925;22;20050;-88
2022/10/25 18:51:41;;;;;;;0.10;0.10;;;;;;;;;;6249079;22;20441;-88
2022/10/25 18:54:11;;;;;;;0.20;0.20;;;;;;;;;;6248608;22;20109;-89
2022/10/25 18:56:37;;;;;;;0.17;0.17;;;;;;;;;;6223366;22;20019;-89
2022/10/25 18:59:03;;;;;;;0.20;0.20;;;;;;;;;;6248922;22;20349;-89
2022/10/25 19:01:31;;;;;;;0.20;0.20;;;;;;;;;;6248603;22;20016;-89
2022/10/25 19:03:57;;;;;;;0.10;0.10;;;;;;;;;;6249222;22;20401;-88
2022/10/25 19:06:23;;;;;;;0.10;0.10;;;;;;;;;;6223508;22;20479;-90
2022/10/25 19:08:49;;;;;;;0.10;0.10;;;;;;;;;;6248926;22;20012;-88
2022/10/25 19:11:15;;;;;;;0.10;0.10;;;;;;;;;;6249134;22;20011;-89
2022/10/25 19:13:41;;;;;;;0.10;0.10;;;;;;;;;;6223462;22;20408;-89
2022/10/25 19:16:07;;;;;;;0.10;0.10;;;;;;;;;;6248098;22;20016;-88
2022/10/25 19:18:33;;;;;;;0.10;0.10;;;;;;;;;;6248863;22;20066;-89
2022/10/25 19:21:06;;;;;;;0.10;0.10;;;;;;;;;;6248674;22;20019;-88
2022/10/25 19:23:33;;;;;;;0.20;0.20;;;;;;;;;;6248569;22;20449;-88
2022/10/25 19:26:05;;;;;;;0.10;0.10;;;;;;;;;;6248032;22;20091;-89
2022/10/25 19:28:31;;;;;;;0.10;0.10;;;;;;;;;;6248647;22;20342;-88
2022/10/25 19:31:03;;;;;;;0.10;0.10;;;;;;;;;;6248387;22;20464;-87
2022/10/25 19:33:29;;;;;;;0.10;0.10;;;;;;;;;;6248598;22;20015;-88
2022/10/25 19:36:00;;;;;;;0.10;0.10;;;;;;;;;;6248346;22;20019;-89
2022/10/25 19:38:26;;;;;;;0.10;0.10;;;;;;;;;;6248626;22;20015;-88
2022/10/25 19:40:52;;;;;;;0.15;0.15;;;;;;;;;;6248490;22;20012;-89
2022/10/25 19:43:18;;;;;;;0.10;0.10;;;;;;;;;;6248435;22;20015;-89
2022/10/25 19:45:44;;;;;;;0.10;0.10;;;;;;;;;;6248795;22;20060;-88
2022/10/25 19:48:10;;;;;;;0.10;0.10;;;;;;;;;;6248572;22;20375;-88
2022/10/25 19:50:37;;;;;;;0.10;0.10;;;;;;;;;;6249158;22;20008;-89
2022/10/25 19:53:03;;;;;;;0.10;0.10;;;;;;;;;;6275884;22;20020;-89
2022/10/25 19:55:29;;;;;;;0.10;0.10;;;;;;;;;;6250404;22;20018;-89
2022/10/25 19:57:55;;;;;;;0.10;0.10;;;;;;;;;;6250435;22;20038;-88
2022/10/25 20:00:21;;;;;;;0.10;0.10;;;;;;;;;;6250775;22;20141;-90
2022/10/25 20:02:47;;;;;;;0.10;0.10;;;;;;;;;;6250774;22;20015;-90
2022/10/25 20:05:13;;;;;;;0.10;0.10;;;;;;;;;;6251100;22;20008;-89
2022/10/25 20:07:39;;;;;;;0.10;0.10;;;;;;;;;;6250246;22;20012;-89
2022/10/25 20:10:05;;;;;;;0.10;0.10;;;;;;;;;;6250833;22;20011;-89
2022/10/25 20:12:31;;;;;;;0.10;0.10;;;;;;;;;;6250766;22;20058;-90
2022/10/25 20:14:57;;;;;;;0.10;0.10;;;;;;;;;;6250242;22;20019;-90
2022/10/25 20:17:23;;;;;;;0.10;0.10;;;;;;;;;;6250722;22;20019;-90
2022/10/25 20:19:49;;;;;;;0.17;0.17;;;;;;;;;;6250933;22;20352;-89
2022/10/25 20:22:16;;;;;;;0.10;0.10;;;;;;;;;;6250029;22;20410;-88
2022/10/25 20:24:42;;;;;;;0.10;0.10;;;;;;;;;;6276024;22;20065;-90
2022/10/25 20:27:08;;;;;;;0.10;0.10;;;;;;;;;;6275510;22;20399;-90
2022/10/25 20:29:34;;;;;;;0.20;0.20;;;;;;;;;;6250888;22;20014;-85
2022/10/25 20:32:00;;;;;;;0.10;0.10;;;;;;;;;;6275380;22;20035;-86
2022/10/25 20:34:26;;;;;;;0.10;0.10;;;;;;;;;;6248582;22;20020;-90
2022/10/25 20:36:52;;;;;;;0.10;0.10;;;;;;;;;;6250131;22;20036;-89
2022/10/25 20:39:18;;;;;;;0.10;0.10;;;;;;;;;;6251048;22;20065;-90
2022/10/25 20:41:44;;;;;;;0.10;0.10;;;;;;;;;;6276682;22;20099;-90
2022/10/25 20:44:10;;;;;;;0.10;0.10;;;;;;;;;;6250603;22;20391;-89
2022/10/25 20:46:36;;;;;;;0.10;0.10;;;;;;;;;;6249931;22;20460;-89
2022/10/25 20:49:03;;;;;;;0.10;0.10;;;;;;;;;;6275372;22;20011;-89
2022/10/25 20:51:29;;;;;;;0.10;0.10;;;;;;;;;;6275140;22;20383;-90
2022/10/25 20:53:55;;;;;;;0.10;0.10;;;;;;;;;;6250223;22;20019;-90
2022/10/25 20:56:21;;;;;;;0.20;0.20;;;;;;;;;;6250307;22;20389;-88
2022/10/25 20:58:47;;;;;;;0.10;0.10;;;;;;;;;;6249961;22;20019;-88
2022/10/25 21:01:13;;;;;;;0.10;0.10;;;;;;;;;;6249221;22;20016;-89
2022/10/25 21:03:39;;;;;;;0.10;0.10;;;;;;;;;;6249599;22;20023;-89
2022/10/25 21:06:06;;;;;;;0.10;0.10;;;;;;;;;;6249597;22;20425;-90
2022/10/25 21:08:32;;;;;;;0.10;0.10;;;;;;;;;;6249496;22;20381;-89
2022/10/25 21:10:59;;;;;;;0.10;0.10;;;;;;;;;;6249590;22;20376;-89
2022/10/25 21:13:25;;;;;;;0.10;0.10;;;;;;;;;;6249630;22;20039;-88